Time;durP1;ratioP1;P1;durP2;ratioP2;P2;SDS_P1;SDS_P2;PMS_P1;PMS_P2;Temp;Humidity;BMP_temperature;BMP_pressure;BME280_temperature;BME280_humidity;BME280_pressure;Samples;Min_cycle;Max_cycle;Signal;HPM_P1;HPM_P2
2021/01/15 00:01:06;;;;;;;6.53;3.25;;;-0.40;99.90;;;;;;4996554;28;20018;-73
2021/01/15 00:03:35;;;;;;;10.30;2.95;;;-0.40;99.90;;;;;;5013995;28;20442;-74
2021/01/15 00:06:05;;;;;;;10.48;4.32;;;-0.50;99.90;;;;;;5014341;28;20041;-73
2021/01/15 00:08:37;;;;;;;8.40;2.88;;;-0.50;99.90;;;;;;5018485;28;20473;-75
2021/01/15 00:11:04;;;;;;;9.15;3.47;;;-0.50;99.90;;;;;;5015820;28;20025;-74
2021/01/15 00:13:30;;;;;;;10.43;2.88;;;-0.50;99.90;;;;;;5016112;28;20091;-74
2021/01/15 00:15:55;;;;;;;7.32;3.03;;;-0.60;99.90;;;;;;5033818;28;20028;-74
2021/01/15 00:18:21;;;;;;;10.65;3.10;;;-0.60;99.90;;;;;;5033830;28;20025;-74
2021/01/15 00:20:46;;;;;;;9.02;3.00;;;-0.60;99.90;;;;;;5028268;28;20026;-75
2021/01/15 00:23:12;;;;;;;5.63;2.75;;;-0.60;99.90;;;;;;4996398;28;20482;-74
2021/01/15 00:25:38;;;;;;;9.05;3.08;;;-0.70;99.90;;;;;;5014623;28;20056;-74
2021/01/15 00:28:03;;;;;;;8.38;3.28;;;-0.70;99.90;;;;;;5013772;28;20037;-73
2021/01/15 00:30:29;;;;;;;6.88;2.80;;;-0.60;99.90;;;;;;4998877;28;20033;-73
2021/01/15 00:32:54;;;;;;;7.93;2.80;;;-0.60;99.90;;;;;;5033464;28;20446;-74
2021/01/15 00:35:20;;;;;;;8.20;3.40;;;-0.60;99.90;;;;;;5033575;28;20074;-75
2021/01/15 00:37:45;;;;;;;8.60;3.13;;;-0.60;99.90;;;;;;5033899;28;20021;-74
2021/01/15 00:40:11;;;;;;;6.60;2.92;;;-0.60;99.90;;;;;;5033051;28;20092;-73
2021/01/15 00:42:37;;;;;;;9.73;2.63;;;-0.60;99.90;;;;;;5013716;28;20026;-74
2021/01/15 00:45:03;;;;;;;9.65;2.90;;;-0.60;99.90;;;;;;5013663;28;20026;-74
2021/01/15 00:47:32;;;;;;;10.57;3.63;;;-0.60;99.90;;;;;;5013486;28;20113;-74
2021/01/15 00:49:58;;;;;;;7.45;2.58;;;-0.60;99.90;;;;;;5013565;28;20513;-74
2021/01/15 00:52:23;;;;;;;7.30;2.92;;;-0.60;99.90;;;;;;5011682;28;20071;-75
2021/01/15 00:54:49;;;;;;;7.28;2.60;;;-0.50;99.90;;;;;;5033292;28;20033;-75
2021/01/15 00:57:14;;;;;;;7.05;2.38;;;-0.50;99.90;;;;;;5033199;28;20021;-75
2021/01/15 00:59:41;;;;;;;8.95;2.55;;;-0.50;99.90;;;;;;5015845;28;20397;-74
2021/01/15 01:02:06;;;;;;;6.47;2.70;;;-0.50;99.90;;;;;;5033305;28;20048;-75
2021/01/15 01:04:32;;;;;;;7.43;2.58;;;-0.40;99.90;;;;;;5033292;28;20035;-75
2021/01/15 01:06:57;;;;;;;5.88;2.25;;;-0.40;99.90;;;;;;5033581;28;20059;-74
2021/01/15 01:09:24;;;;;;;5.90;2.30;;;-0.40;99.90;;;;;;5017399;28;20061;-74
2021/01/15 01:11:49;;;;;;;12.65;2.85;;;-0.40;99.90;;;;;;5024408;28;20026;-75
2021/01/15 01:14:15;;;;;;;10.68;3.05;;;-0.40;99.90;;;;;;4999990;28;20025;-75
2021/01/15 01:16:40;;;;;;;12.75;3.53;;;0.20;99.90;;;;;;4999930;28;20496;-75
2021/01/15 01:19:06;;;;;;;7.30;2.85;;;-0.40;99.90;;;;;;5017274;28;20105;-74
2021/01/15 01:21:34;;;;;;;5.35;2.50;;;-0.40;99.90;;;;;;5027579;28;20028;-74
2021/01/15 01:24:00;;;;;;;8.38;1.95;;;-0.40;99.90;;;;;;5019572;28;20034;-74
2021/01/15 01:26:25;;;;;;;7.35;2.47;;;-0.50;99.90;;;;;;5019328;28;20497;-75
2021/01/15 01:28:51;;;;;;;4.63;2.22;;;-0.50;99.90;;;;;;5036902;28;20025;-74
2021/01/15 01:31:18;;;;;;;7.07;3.28;;;-0.50;99.90;;;;;;5028874;28;20092;-74
2021/01/15 01:33:44;;;;;;;8.23;2.92;;;-0.60;99.90;;;;;;5017138;28;20036;-75
2021/01/15 01:36:11;;;;;;;8.73;3.15;;;-0.50;99.90;;;;;;4999600;28;20076;-74
2021/01/15 01:38:37;;;;;;;6.40;3.03;;;-0.50;99.90;;;;;;5017639;28;20064;-75
2021/01/15 01:41:03;;;;;;;6.45;2.80;;;-0.40;99.90;;;;;;5017326;28;20092;-75
2021/01/15 01:43:28;;;;;;;6.47;2.90;;;-0.50;99.90;;;;;;5030381;28;20030;-76
2021/01/15 01:45:55;;;;;;;8.98;2.80;;;-0.40;99.90;;;;;;5019054;28;20026;-74
2021/01/15 01:48:22;;;;;;;9.85;3.03;;;-0.30;99.90;;;;;;5036710;28;20474;-74
2021/01/15 01:50:48;;;;;;;7.05;2.88;;;-0.30;99.90;;;;;;5022037;28;20025;-75
2021/01/15 01:53:17;;;;;;;9.95;2.50;;;-0.20;99.90;;;;;;5016772;28;20122;-74
2021/01/15 01:55:44;;;;;;;9.27;3.08;;;-0.10;99.90;;;;;;5016790;28;20125;-74
2021/01/15 01:58:15;;;;;;;5.85;3.17;;;-0.10;99.90;;;;;;5016998;28;20018;-74
2021/01/15 02:00:42;;;;;;;7.75;2.92;;;0.00;99.90;;;;;;5030312;28;20375;-75
2021/01/15 02:03:08;;;;;;;6.93;2.80;;;0.00;99.90;;;;;;5036533;28;20032;-75
2021/01/15 02:05:33;;;;;;;6.32;2.80;;;0.00;99.90;;;;;;5036591;28;20390;-75
2021/01/15 02:07:59;;;;;;;8.90;2.90;;;0.00;99.90;;;;;;5018943;28;20037;-75
2021/01/15 02:10:45;;;;;;;7.43;2.85;;;0.10;99.90;;;;;;5007639;28;20052;-75
2021/01/15 02:13:15;;;;;;;7.40;2.97;;;0.10;99.90;;;;;;5016774;28;20492;-75
2021/01/15 02:15:46;;;;;;;5.88;2.13;;;0.10;99.90;;;;;;4999055;28;20390;-75
2021/01/15 02:18:31;;;;;;;6.15;2.70;;;0.10;99.90;;;;;;5017205;28;20018;-74
2021/01/15 02:21:41;;;;;;;7.97;3.13;;;0.20;99.90;;;;;;5031260;28;20036;-75
2021/01/15 02:24:51;;;;;;;11.35;3.47;;;0.20;99.90;;;;;;5036220;28;20033;-74
2021/01/15 02:27:53;;;;;;;6.63;2.65;;;0.20;99.90;;;;;;5022784;28;20098;-75
2021/01/15 02:30:41;;;;;;;7.75;3.35;;;0.30;99.90;;;;;;5026061;28;20034;-75
2021/01/15 02:33:25;;;;;;;7.93;3.30;;;0.30;99.90;;;;;;5015974;28;20052;-74
2021/01/15 02:36:14;;;;;;;8.75;3.05;;;0.30;99.90;;;;;;4998796;28;20026;-74
2021/01/15 02:38:58;;;;;;;;;;;0.40;99.90;;;;;;5016574;28;20389;-74
2021/01/15 02:41:26;;;;;;;5.90;2.55;;;0.40;99.90;;;;;;4998655;28;20011;-74
2021/01/15 02:43:55;;;;;;;6.47;2.60;;;0.50;99.90;;;;;;4998621;28;20018;-74
2021/01/15 02:46:52;;;;;;;6.43;2.47;;;0.50;99.90;;;;;;4999493;28;20296;-75
2021/01/15 02:49:17;;;;;;;6.13;2.58;;;0.50;99.90;;;;;;5015699;28;20034;-75
2021/01/15 02:51:45;;;;;;;8.38;3.35;;;0.50;99.90;;;;;;5015861;28;20076;-77
2021/01/15 02:54:10;;;;;;;6.50;2.58;;;0.60;99.90;;;;;;4998631;28;20034;-76
2021/01/15 02:56:37;;;;;;;9.65;2.80;;;0.60;99.90;;;;;;5018347;28;20436;-77
2021/01/15 02:59:04;;;;;;;7.70;2.70;;;0.60;99.90;;;;;;5018037;28;20022;-77
2021/01/15 03:01:44;;;;;;;5.80;2.88;;;0.60;99.90;;;;;;5035876;28;20166;-77
2021/01/15 03:04:26;;;;;;;5.97;2.28;;;0.60;99.90;;;;;;5036352;28;20057;-77
2021/01/15 03:06:57;;;;;;;8.10;2.47;;;0.60;99.90;;;;;;5021918;28;20505;-77
2021/01/15 03:09:29;;;;;;;7.43;2.75;;;0.60;99.90;;;;;;5035401;28;20560;-76
2021/01/15 03:11:57;;;;;;;5.80;2.67;;;0.60;99.90;;;;;;5017800;28;20032;-76
2021/01/15 03:14:23;;;;;;;6.18;2.13;;;0.70;99.90;;;;;;5035164;28;20108;-76
2021/01/15 03:16:50;;;;;;;7.43;2.33;;;0.70;99.90;;;;;;5017537;28;20569;-76
2021/01/15 03:19:18;;;;;;;6.75;2.75;;;0.70;99.90;;;;;;5035282;28;20053;-76
2021/01/15 03:21:44;;;;;;;5.93;2.15;;;0.70;99.90;;;;;;5017619;28;20021;-76
2021/01/15 03:24:10;;;;;;;6.10;2.63;;;0.70;99.90;;;;;;5035676;28;20044;-77
2021/01/15 03:26:36;;;;;;;6.15;2.28;;;0.70;99.90;;;;;;5017707;28;20029;-76
2021/01/15 03:29:02;;;;;;;5.50;2.17;;;0.80;99.90;;;;;;5035453;28;20037;-76
2021/01/15 03:31:28;;;;;;;6.05;2.25;;;0.80;99.90;;;;;;5035464;28;20031;-77
2021/01/15 03:33:53;;;;;;;7.40;2.67;;;0.80;99.90;;;;;;5034450;28;20029;-76
2021/01/15 03:36:20;;;;;;;6.85;1.92;;;0.80;99.90;;;;;;5035396;28;20040;-77
2021/01/15 03:38:46;;;;;;;6.47;2.33;;;0.80;99.90;;;;;;5035222;28;20385;-77
2021/01/15 03:41:12;;;;;;;5.32;2.38;;;0.80;99.90;;;;;;5017159;28;20021;-76
2021/01/15 03:43:37;;;;;;;6.45;2.55;;;0.80;99.90;;;;;;5034621;28;20492;-76
2021/01/15 03:46:03;;;;;;;6.43;2.78;;;0.80;99.90;;;;;;5016761;28;20037;-78
2021/01/15 03:48:29;;;;;;;6.47;2.38;;;0.80;99.90;;;;;;5034514;28;20021;-77
2021/01/15 03:50:55;;;;;;;5.85;2.30;;;0.80;99.90;;;;;;5034302;28;20112;-76
2021/01/15 03:53:21;;;;;;;6.65;2.50;;;0.80;99.90;;;;;;5034973;28;20072;-77
2021/01/15 03:55:48;;;;;;;5.10;2.20;;;0.80;99.90;;;;;;5034611;28;20024;-76
2021/01/15 03:58:13;;;;;;;6.22;2.38;;;0.80;99.90;;;;;;5016503;28;20029;-76
2021/01/15 04:00:39;;;;;;;5.45;2.33;;;0.80;99.90;;;;;;5034807;28;20028;-76
2021/01/15 04:03:05;;;;;;;6.63;2.42;;;0.80;99.90;;;;;;5034986;28;20021;-76
2021/01/15 04:05:32;;;;;;;6.13;1.60;;;0.80;99.90;;;;;;5016802;28;20092;-76
2021/01/15 04:07:58;;;;;;;7.75;2.08;;;0.80;99.90;;;;;;5016609;28;20021;-76
2021/01/15 04:10:24;;;;;;;7.60;2.42;;;0.80;99.90;;;;;;5034625;28;20075;-76
2021/01/15 04:12:49;;;;;;;3.47;1.75;;;0.80;99.90;;;;;;5034170;28;20034;-76
2021/01/15 04:15:16;;;;;;;6.60;2.47;;;0.90;99.90;;;;;;5016779;28;20432;-76
2021/01/15 04:17:42;;;;;;;6.25;2.15;;;0.90;99.90;;;;;;5034725;28;20443;-76
2021/01/15 04:20:10;;;;;;;4.90;2.20;;;0.90;99.90;;;;;;5016422;28;20028;-76
2021/01/15 04:22:40;;;;;;;6.18;2.40;;;0.90;99.90;;;;;;5034479;28;20052;-76
2021/01/15 04:25:06;;;;;;;5.78;2.25;;;1.00;99.90;;;;;;5034690;28;20021;-77
2021/01/15 04:27:34;;;;;;;6.13;2.13;;;1.00;99.90;;;;;;5033991;28;20040;-76
2021/01/15 04:30:01;;;;;;;5.75;2.28;;;1.00;99.90;;;;;;5016235;28;20021;-76
2021/01/15 04:32:28;;;;;;;5.43;2.10;;;0.90;99.90;;;;;;5034158;28;20026;-76
2021/01/15 04:34:54;;;;;;;6.82;2.58;;;0.90;99.90;;;;;;5033469;28;20084;-77
2021/01/15 04:37:19;;;;;;;8.00;2.92;;;0.90;99.90;;;;;;5016177;28;20482;-77
2021/01/15 04:39:45;;;;;;;6.57;2.20;;;0.90;99.90;;;;;;5016268;28;20067;-77
2021/01/15 04:42:14;;;;;;;4.93;1.85;;;1.00;99.90;;;;;;5034619;28;20029;-77
2021/01/15 04:44:40;;;;;;;6.70;1.88;;;1.00;99.90;;;;;;5033194;28;20112;-77
2021/01/15 04:47:07;;;;;;;6.18;2.47;;;1.00;99.90;;;;;;5034072;28;20022;-76
2021/01/15 04:49:35;;;;;;;7.18;2.85;;;1.00;99.90;;;;;;5016368;28;20575;-76
2021/01/15 04:52:02;;;;;;;4.50;1.73;;;1.00;99.90;;;;;;5016373;28;20033;-78
2021/01/15 04:54:36;;;;;;;6.50;2.00;;;1.00;99.90;;;;;;5015758;28;20104;-76
2021/01/15 04:57:10;;;;;;;5.93;2.20;;;1.00;99.90;;;;;;5033831;28;20032;-77
2021/01/15 04:59:49;;;;;;;6.35;2.47;;;1.00;99.90;;;;;;5033967;28;20439;-77
2021/01/15 05:02:15;;;;;;;;;;;1.00;99.90;;;;;;5033694;28;20014;-77
2021/01/15 05:04:41;;;;;;;6.85;1.67;;;1.00;99.90;;;;;;5033930;28;19959;-79
2021/01/15 05:07:08;;;;;;;5.63;2.55;;;1.00;99.90;;;;;;5016821;28;20079;-76
2021/01/15 05:09:39;;;;;;;5.10;1.95;;;1.00;99.90;;;;;;5016019;28;20432;-77
2021/01/15 05:12:08;;;;;;;4.47;1.95;;;1.00;99.90;;;;;;5015580;28;20025;-76
2021/01/15 05:14:35;;;;;;;9.98;2.17;;;1.00;99.90;;;;;;5033561;28;20028;-76
2021/01/15 05:17:03;;;;;;;8.45;2.88;;;1.00;99.90;;;;;;5034060;28;20018;-76
2021/01/15 05:19:29;;;;;;;6.47;2.50;;;1.00;99.90;;;;;;5015799;28;20079;-77
2021/01/15 05:21:55;;;;;;;5.88;2.00;;;1.00;99.90;;;;;;5015437;28;20025;-77
2021/01/15 05:24:21;;;;;;;6.07;2.28;;;1.00;99.90;;;;;;5033257;28;20386;-76
2021/01/15 05:26:47;;;;;;;5.78;1.67;;;1.00;99.90;;;;;;5015863;28;20029;-77
2021/01/15 05:29:12;;;;;;;6.47;1.88;;;1.00;99.90;;;;;;5033821;28;20029;-78
2021/01/15 05:31:57;;;;;;;7.35;2.92;;;1.00;99.90;;;;;;5015771;28;20490;-76
2021/01/15 05:34:25;;;;;;;6.20;2.80;;;1.00;99.90;;;;;;5015489;28;20104;-77
2021/01/15 05:36:51;;;;;;;9.00;2.13;;;1.00;99.90;;;;;;5033096;28;20101;-76
2021/01/15 05:39:24;;;;;;;7.22;2.78;;;1.10;99.90;;;;;;5033044;28;20389;-77
2021/01/15 05:41:58;;;;;;;9.80;3.00;;;1.10;99.90;;;;;;5033408;28;20056;-76
2021/01/15 05:44:33;;;;;;;5.45;2.47;;;1.10;99.90;;;;;;5033232;28;20029;-76
2021/01/15 05:47:00;;;;;;;6.25;2.58;;;1.10;99.90;;;;;;5033165;28;20057;-77
2021/01/15 05:49:30;;;;;;;7.25;2.70;;;1.10;99.90;;;;;;5033164;28;20482;-76
2021/01/15 05:52:07;;;;;;;6.90;2.90;;;1.20;99.90;;;;;;5032968;28;20041;-77
2021/01/15 05:54:33;;;;;;;4.70;1.90;;;1.20;99.90;;;;;;5032813;28;20056;-77
2021/01/15 05:57:00;;;;;;;6.72;2.55;;;1.10;99.90;;;;;;5035548;28;20072;-77
2021/01/15 05:59:26;;;;;;;6.70;2.80;;;1.20;99.90;;;;;;5018998;28;20021;-77
2021/01/15 06:01:54;;;;;;;5.13;2.33;;;1.10;99.90;;;;;;5036815;28;20021;-77
2021/01/15 06:04:33;;;;;;;6.17;2.60;;;1.20;99.90;;;;;;5018603;28;20018;-77
2021/01/15 06:07:08;;;;;;;8.35;2.97;;;1.20;99.90;;;;;;5018989;28;20660;-77
2021/01/15 06:09:36;;;;;;;7.32;2.92;;;1.20;99.90;;;;;;5018684;28;20025;-76
2021/01/15 06:12:07;;;;;;;5.95;2.55;;;1.20;99.90;;;;;;5036736;28;20525;-77
2021/01/15 06:14:33;;;;;;;6.78;2.90;;;1.20;99.90;;;;;;5036288;28;20025;-77
2021/01/15 06:17:06;;;;;;;8.65;3.15;;;1.20;99.90;;;;;;5018342;28;20048;-75
2021/01/15 06:19:48;;;;;;;8.52;3.33;;;1.20;99.90;;;;;;5018523;28;20026;-76
2021/01/15 06:22:28;;;;;;;7.40;2.53;;;1.30;99.90;;;;;;5035931;28;20393;-77
2021/01/15 06:25:18;;;;;;;8.27;2.92;;;1.30;99.90;;;;;;5037133;28;20509;-78
2021/01/15 06:27:44;;;;;;;8.10;3.40;;;1.30;99.90;;;;;;5011534;28;20030;-76
2021/01/15 06:30:25;;;;;;;7.47;2.72;;;1.30;99.90;;;;;;5018211;28;20056;-76
2021/01/15 06:32:51;;;;;;;5.97;2.70;;;1.40;99.90;;;;;;5018063;28;20021;-77
2021/01/15 06:35:29;;;;;;;6.70;2.65;;;1.40;99.90;;;;;;5036595;28;20076;-77
2021/01/15 06:38:04;;;;;;;7.30;3.28;;;1.40;99.90;;;;;;5035881;28;20045;-76
2021/01/15 06:40:37;;;;;;;9.25;3.55;;;1.40;99.90;;;;;;5035706;28;20030;-76
2021/01/15 06:43:05;;;;;;;7.82;3.00;;;1.40;99.90;;;;;;5017979;28;20030;-77
2021/01/15 06:45:45;;;;;;;6.85;2.50;;;1.30;99.90;;;;;;5018120;28;20463;-76
2021/01/15 06:48:14;;;;;;;9.85;4.03;;;1.30;99.90;;;;;;5035652;28;20022;-76
2021/01/15 06:50:42;;;;;;;7.78;3.72;;;1.40;99.90;;;;;;5080845;23;20343;-74
2021/01/15 06:53:17;;;;;;;6.77;2.50;;;1.50;99.90;;;;;;5035693;28;20025;-72
2021/01/15 06:55:45;;;;;;;6.90;2.72;;;1.40;99.90;;;;;;5035384;28;20282;-73
2021/01/15 06:58:22;;;;;;;8.83;3.37;;;1.40;99.90;;;;;;5017100;28;20381;-73
2021/01/15 07:01:37;;;;;;;6.80;2.85;;;2.00;99.90;;;;;;5035277;28;20280;-73
2021/01/15 07:04:24;;;;;;;11.52;3.53;;;1.50;99.90;;;;;;5027301;28;20047;-73
2021/01/15 07:07:05;;;;;;;8.07;3.00;;;1.50;99.10;;;;;;5015882;28;20101;-73
2021/01/15 07:09:31;;;;;;;6.78;2.55;;;1.50;99.60;;;;;;5028430;28;20040;-73
2021/01/15 07:12:04;;;;;;;7.55;3.22;;;1.50;99.60;;;;;;5036033;28;20092;-73
2021/01/15 07:14:40;;;;;;;8.15;2.70;;;1.50;99.90;;;;;;5035698;28;20461;-74
2021/01/15 07:17:12;;;;;;;7.57;3.28;;;1.50;99.90;;;;;;5015842;28;20049;-73
2021/01/15 07:19:44;;;;;;;8.30;2.92;;;1.50;99.80;;;;;;5016622;28;20045;-73
2021/01/15 07:22:11;;;;;;;7.82;3.28;;;1.50;99.90;;;;;;5017508;28;20018;-71
2021/01/15 07:24:41;;;;;;;7.93;3.30;;;1.40;99.90;;;;;;5034733;28;20037;-72
2021/01/15 07:27:10;;;;;;;9.48;3.47;;;1.40;99.90;;;;;;5017472;28;20393;-72
2021/01/15 07:29:42;;;;;;;8.02;2.63;;;1.40;99.90;;;;;;5035113;28;20071;-72
2021/01/15 07:32:17;;;;;;;6.68;2.75;;;1.40;99.90;;;;;;5032705;28;20021;-73
2021/01/15 07:34:47;;;;;;;10.02;3.60;;;1.50;99.90;;;;;;5016234;28;20203;-72
2021/01/15 07:37:28;;;;;;;7.78;3.42;;;1.40;99.90;;;;;;5017888;28;20052;-74
2021/01/15 07:40:16;;;;;;;11.15;3.42;;;1.40;99.90;;;;;;5015217;28;20030;-73
2021/01/15 07:42:52;;;;;;;9.80;3.85;;;1.50;99.90;;;;;;5004877;28;20375;-73
2021/01/15 07:45:23;;;;;;;10.40;3.53;;;1.40;99.90;;;;;;5027411;28;20056;-73
2021/01/15 07:47:54;;;;;;;7.32;3.30;;;1.40;99.90;;;;;;5034661;28;20109;-73
2021/01/15 07:50:32;;;;;;;7.72;3.38;;;1.40;99.90;;;;;;5034299;28;20021;-73
2021/01/15 07:53:17;;;;;;;14.73;3.78;;;1.40;99.90;;;;;;5034337;28;20033;-73
2021/01/15 07:55:48;;;;;;;10.63;4.13;;;1.40;99.90;;;;;;5030254;23;20072;-73
2021/01/15 07:58:16;;;;;;;7.38;3.13;;;1.50;99.90;;;;;;5034341;28;20500;-73
2021/01/15 08:00:42;;;;;;;8.40;3.25;;;1.50;99.90;;;;;;5034480;28;20105;-73
2021/01/15 08:03:10;;;;;;;9.55;3.55;;;1.50;99.90;;;;;;5028957;28;20116;-74
2021/01/15 08:05:35;;;;;;;9.48;3.50;;;1.50;99.90;;;;;;5008215;28;20478;-73
2021/01/15 08:08:19;;;;;;;9.45;3.30;;;1.50;99.90;;;;;;5034481;28;20101;-73
2021/01/15 08:10:49;;;;;;;10.20;3.78;;;1.40;99.90;;;;;;5032247;28;20469;-73
2021/01/15 08:13:18;;;;;;;11.27;4.05;;;1.50;99.90;;;;;;5016721;28;20033;-73
2021/01/15 08:15:44;;;;;;;8.50;3.10;;;1.50;99.90;;;;;;5016582;28;20025;-73
2021/01/15 08:18:10;;;;;;;12.60;4.20;;;1.70;99.90;;;;;;5033779;28;20022;-73
2021/01/15 08:20:36;;;;;;;7.40;2.90;;;1.60;99.90;;;;;;5030075;28;20466;-73
2021/01/15 08:23:02;;;;;;;14.43;4.07;;;1.60;99.90;;;;;;5014758;28;20083;-73
2021/01/15 08:25:29;;;;;;;9.75;3.55;;;1.60;99.90;;;;;;4996528;28;20018;-72
2021/01/15 08:27:56;;;;;;;8.40;3.20;;;1.60;99.90;;;;;;5014406;28;20041;-72
2021/01/15 08:30:22;;;;;;;7.60;3.42;;;1.60;99.90;;;;;;5014163;28;20049;-72
2021/01/15 08:32:47;;;;;;;11.27;4.22;;;1.60;99.90;;;;;;5014108;28;20026;-72
2021/01/15 08:35:29;;;;;;;11.25;3.75;;;1.60;99.90;;;;;;5014320;28;20030;-73
2021/01/15 08:37:59;;;;;;;9.93;3.63;;;1.60;99.90;;;;;;5014252;28;20445;-73
2021/01/15 08:40:30;;;;;;;8.63;3.80;;;1.70;99.90;;;;;;5014656;28;20028;-72
2021/01/15 08:42:57;;;;;;;9.50;3.08;;;1.70;99.90;;;;;;5013879;28;20483;-74
2021/01/15 08:45:28;;;;;;;7.38;3.20;;;1.70;99.90;;;;;;5015662;28;20025;-74
2021/01/15 08:47:55;;;;;;;6.43;3.25;;;1.70;99.90;;;;;;5013973;28;20568;-73
2021/01/15 08:50:22;;;;;;;10.60;3.80;;;1.80;99.90;;;;;;5008728;28;20052;-73
2021/01/15 08:52:49;;;;;;;7.55;2.95;;;1.80;99.90;;;;;;5017974;28;20030;-73
2021/01/15 08:55:17;;;;;;;11.20;3.15;;;1.80;99.90;;;;;;5033643;28;20385;-73
2021/01/15 08:57:43;;;;;;;11.90;4.00;;;1.80;99.90;;;;;;5034231;28;20018;-74
2021/01/15 09:00:13;;;;;;;8.10;3.63;;;1.80;99.90;;;;;;5033123;28;20528;-73
2021/01/15 09:02:40;;;;;;;9.38;3.53;;;1.80;99.90;;;;;;5033722;28;20507;-72
2021/01/15 09:05:09;;;;;;;9.20;3.88;;;1.90;99.90;;;;;;5033764;28;20033;-73
2021/01/15 09:07:46;;;;;;;9.85;4.38;;;1.90;99.90;;;;;;5033483;28;20106;-74
2021/01/15 09:10:14;;;;;;;9.30;3.40;;;1.90;99.90;;;;;;5014918;28;20032;-74
2021/01/15 09:12:42;;;;;;;6.93;3.23;;;1.90;99.90;;;;;;5013997;28;20014;-74
2021/01/15 09:15:23;;;;;;;11.25;3.75;;;1.90;99.90;;;;;;5000926;28;20022;-73
2021/01/15 09:17:49;;;;;;;9.70;3.67;;;1.90;99.90;;;;;;5032176;28;20026;-72
2021/01/15 09:47:07;;;;;;;8.82;3.97;;;1.80;99.90;;;;;;5105721;27;20371;-74
2021/01/15 09:49:33;;;;;;;8.98;3.90;;;1.80;99.90;;;;;;5095380;28;20499;-74
2021/01/15 09:52:00;;;;;;;8.63;3.78;;;1.90;99.90;;;;;;5098918;28;20024;-74
2021/01/15 09:54:26;;;;;;;9.48;3.75;;;1.90;99.90;;;;;;5090508;28;20013;-75
2021/01/15 09:56:51;;;;;;;8.80;3.97;;;2.00;99.90;;;;;;5090410;28;20050;-75
2021/01/15 09:59:20;;;;;;;8.27;3.38;;;2.00;99.90;;;;;;5090378;28;20021;-75
2021/01/15 10:01:46;;;;;;;8.65;3.80;;;2.10;99.90;;;;;;5090460;28;20040;-75
2021/01/15 10:04:11;;;;;;;9.00;3.42;;;2.10;99.90;;;;;;5090479;28;20122;-74
2021/01/15 10:06:39;;;;;;;9.00;3.65;;;2.10;99.90;;;;;;5090376;28;20036;-75
2021/01/15 10:09:06;;;;;;;10.95;3.72;;;2.10;99.90;;;;;;5090242;28;20020;-74
2021/01/15 10:11:34;;;;;;;10.15;3.80;;;2.10;99.90;;;;;;5090537;28;20048;-74
2021/01/15 10:14:01;;;;;;;9.13;3.28;;;2.20;99.90;;;;;;5072529;28;20154;-74
2021/01/15 10:16:27;;;;;;;10.25;3.67;;;2.10;99.90;;;;;;5090715;28;20028;-74
2021/01/15 10:18:54;;;;;;;8.70;3.85;;;2.20;99.90;;;;;;5090488;28;20024;-76
2021/01/15 10:21:24;;;;;;;9.18;3.47;;;2.20;99.90;;;;;;5090583;28;20031;-74
2021/01/15 10:23:51;;;;;;;7.97;3.47;;;2.20;99.90;;;;;;5090352;28;20034;-76
2021/01/15 10:26:25;;;;;;;8.02;3.08;;;2.20;99.90;;;;;;5072626;28;20043;-74
2021/01/15 10:28:58;;;;;;;10.32;3.33;;;2.20;99.90;;;;;;5072287;28;20070;-76
2021/01/15 10:31:35;;;;;;;6.18;3.45;;;2.20;99.90;;;;;;5071793;28;20046;-75
2021/01/15 10:34:03;;;;;;;7.63;3.40;;;2.20;99.90;;;;;;5089952;28;20032;-75
2021/01/15 10:36:29;;;;;;;8.82;3.58;;;2.20;99.90;;;;;;5090190;28;20066;-74
2021/01/15 10:38:55;;;;;;;7.78;3.42;;;2.20;99.90;;;;;;5090018;28;20027;-74
2021/01/15 10:41:33;;;;;;;9.00;3.97;;;2.20;99.90;;;;;;5098126;28;20384;-74
2021/01/15 10:44:00;;;;;;;6.90;3.45;;;2.20;99.90;;;;;;5098932;28;20030;-73
2021/01/15 10:46:33;;;;;;;8.07;3.70;;;2.30;99.90;;;;;;5071258;28;20025;-74
2021/01/15 10:49:00;;;;;;;10.80;3.92;;;2.30;99.90;;;;;;5083824;28;20151;-75
2021/01/15 10:51:26;;;;;;;13.65;4.43;;;2.30;99.90;;;;;;5082615;28;20521;-74
2021/01/15 10:53:52;;;;;;;9.77;3.83;;;2.30;99.90;;;;;;5057782;28;20028;-74
2021/01/15 10:56:18;;;;;;;7.75;3.58;;;2.30;99.90;;;;;;5058182;28;20032;-73
2021/01/15 10:58:43;;;;;;;9.00;3.65;;;2.30;99.90;;;;;;5073419;28;20017;-76
2021/01/15 11:01:09;;;;;;;8.32;3.35;;;2.30;99.90;;;;;;5064481;28;20494;-74
2021/01/15 11:03:35;;;;;;;9.23;4.30;;;2.30;99.90;;;;;;5075539;28;20021;-75
2021/01/15 11:06:00;;;;;;;8.02;4.00;;;2.40;99.90;;;;;;5077384;28;20027;-74
2021/01/15 11:08:26;;;;;;;9.73;4.15;;;2.40;99.90;;;;;;5076119;28;20024;-75
2021/01/15 11:10:51;;;;;;;9.80;4.50;;;2.40;99.90;;;;;;5090932;28;20024;-74
2021/01/15 11:13:17;;;;;;;9.95;4.55;;;2.40;99.90;;;;;;5078253;28;20016;-75
2021/01/15 11:15:42;;;;;;;10.93;4.47;;;2.50;99.90;;;;;;5082765;28;20038;-74
2021/01/15 11:18:08;;;;;;;10.80;4.18;;;2.50;99.90;;;;;;5092900;28;20024;-75
2021/01/15 11:20:33;;;;;;;12.82;4.10;;;2.60;99.90;;;;;;5096121;28;20020;-74
2021/01/15 11:23:01;;;;;;;9.50;4.43;;;2.60;99.90;;;;;;5075276;28;20079;-75
2021/01/15 11:25:28;;;;;;;8.10;4.25;;;2.60;99.90;;;;;;5095126;28;20024;-75
2021/01/15 11:27:54;;;;;;;12.20;5.00;;;2.70;99.90;;;;;;5095709;28;20512;-75
2021/01/15 11:30:19;;;;;;;14.25;4.70;;;2.70;99.90;;;;;;5093799;28;20036;-75
2021/01/15 11:32:45;;;;;;;11.80;4.82;;;2.70;99.90;;;;;;5095809;28;20044;-75
2021/01/15 11:35:13;;;;;;;10.00;4.30;;;2.70;99.90;;;;;;5096116;28;20111;-76
2021/01/15 11:37:39;;;;;;;9.85;4.50;;;2.70;99.90;;;;;;5095172;28;20032;-75
2021/01/15 11:40:07;;;;;;;14.77;4.63;;;2.80;99.90;;;;;;5089381;28;20031;-75
2021/01/15 11:42:33;;;;;;;12.05;4.15;;;2.80;99.90;;;;;;5084107;28;20118;-75
2021/01/15 11:45:00;;;;;;;12.02;4.07;;;3.30;99.90;;;;;;5057095;28;20845;-75
2021/01/15 11:47:25;;;;;;;10.57;4.40;;;2.80;99.90;;;;;;5075530;28;20025;-75
2021/01/15 11:49:51;;;;;;;12.75;5.22;;;2.80;99.90;;;;;;5076378;28;20035;-75
2021/01/15 11:52:17;;;;;;;9.70;4.20;;;2.80;99.90;;;;;;5079175;28;20025;-75
2021/01/15 11:54:42;;;;;;;11.63;4.68;;;2.80;99.90;;;;;;5064999;28;20406;-75
2021/01/15 11:57:08;;;;;;;11.38;4.75;;;2.80;99.90;;;;;;5074222;28;20362;-75
2021/01/15 11:59:33;;;;;;;12.50;5.10;;;2.80;99.90;;;;;;5069562;28;20527;-75
2021/01/15 12:01:59;;;;;;;14.75;5.00;;;2.80;99.90;;;;;;5095038;28;20047;-75
2021/01/15 12:04:24;;;;;;;17.73;4.60;;;2.90;99.90;;;;;;5079637;28;20078;-76
2021/01/15 12:06:51;;;;;;;11.48;4.95;;;2.90;99.90;;;;;;5074422;28;20016;-75
2021/01/15 12:09:17;;;;;;;10.25;4.15;;;2.90;99.90;;;;;;5074576;28;20025;-76
2021/01/15 12:11:42;;;;;;;11.88;5.25;;;2.90;99.90;;;;;;5056773;28;20100;-76
2021/01/15 12:14:08;;;;;;;14.05;4.43;;;3.00;99.90;;;;;;5056549;28;20020;-76
2021/01/15 12:16:34;;;;;;;12.18;4.70;;;2.90;99.90;;;;;;5056334;28;20066;-76
2021/01/15 12:19:00;;;;;;;11.40;4.80;;;2.90;99.90;;;;;;5056882;28;20016;-75
2021/01/15 12:21:26;;;;;;;10.07;4.25;;;2.90;99.90;;;;;;5074950;28;20020;-75
2021/01/15 12:23:51;;;;;;;9.07;4.18;;;2.90;99.90;;;;;;5056332;28;20061;-76
2021/01/15 12:26:17;;;;;;;12.70;4.85;;;2.90;99.90;;;;;;5056315;28;20044;-76
2021/01/15 12:28:43;;;;;;;8.20;3.40;;;2.90;99.90;;;;;;5074215;28;20025;-75
2021/01/15 12:31:09;;;;;;;11.57;4.47;;;3.00;99.90;;;;;;5056061;28;20043;-76
2021/01/15 12:33:34;;;;;;;11.70;4.40;;;2.90;99.90;;;;;;5056205;28;20395;-76
2021/01/15 12:36:00;;;;;;;14.98;5.22;;;2.90;99.90;;;;;;5055736;28;20094;-75
2021/01/15 12:38:25;;;;;;;11.05;4.15;;;3.00;99.90;;;;;;5075269;28;20052;-76
2021/01/15 12:40:51;;;;;;;9.85;4.38;;;3.00;99.90;;;;;;5075106;28;20074;-75
2021/01/15 12:43:17;;;;;;;12.43;4.47;;;3.00;99.90;;;;;;5086557;28;20082;-75
2021/01/15 12:45:47;;;;;;;10.15;4.03;;;3.00;99.90;;;;;;5075450;28;20020;-76
2021/01/15 12:48:14;;;;;;;10.65;3.90;;;3.00;99.90;;;;;;5073882;28;20020;-76
2021/01/15 12:50:41;;;;;;;13.45;4.50;;;3.00;99.90;;;;;;5075736;28;20419;-76
2021/01/15 12:53:07;;;;;;;11.70;3.78;;;3.00;99.90;;;;;;5064140;28;20016;-76
2021/01/15 12:55:33;;;;;;;10.75;4.32;;;3.00;99.90;;;;;;5075103;28;20024;-76
2021/01/15 12:58:00;;;;;;;9.68;3.83;;;3.00;99.90;;;;;;5073722;28;20073;-76
2021/01/15 13:00:29;;;;;;;10.60;3.85;;;3.00;99.90;;;;;;5081346;28;20055;-75
2021/01/15 13:02:55;;;;;;;;;;;3.00;99.90;;;;;;5055802;28;20051;-75
2021/01/15 13:05:20;;;;;;;13.68;4.75;;;3.00;99.90;;;;;;5055273;28;20282;-75
2021/01/15 13:07:46;;;;;;;9.20;4.38;;;3.10;99.90;;;;;;5074332;28;20379;-75
2021/01/15 13:10:13;;;;;;;8.55;3.38;;;3.10;99.90;;;;;;5089455;28;20039;-75
2021/01/15 13:12:39;;;;;;;10.10;4.57;;;3.10;99.90;;;;;;5072850;28;20055;-75
2021/01/15 13:15:07;;;;;;;12.73;4.00;;;3.10;99.90;;;;;;5073229;28;20052;-75
2021/01/15 13:17:46;;;;;;;13.82;4.88;;;3.00;99.90;;;;;;5056126;28;20017;-75
2021/01/15 13:20:12;;;;;;;11.55;5.20;;;3.00;99.90;;;;;;5093300;28;20102;-75
2021/01/15 13:22:40;;;;;;;12.40;4.70;;;3.10;99.90;;;;;;5075325;28;20024;-76
2021/01/15 13:25:06;;;;;;;11.88;4.72;;;3.00;99.90;;;;;;5093392;28;20028;-75
2021/01/15 13:27:32;;;;;;;11.45;4.95;;;3.10;99.90;;;;;;5093450;28;20032;-75
2021/01/15 13:29:58;;;;;;;12.98;5.47;;;3.10;99.90;;;;;;5093507;28;20054;-75